TimeEST,TemperatureF,Dew PointF,Humidity,Sea Level PressureIn,VisibilityMPH,Wind Direction,Wind SpeedMPH,Gust SpeedMPH,PrecipitationIn,Events,Conditions,WindDirDegrees,DateUTC
12:51 AM,30.9,24.1,76,30.31,10.0,Calm,Calm,-,N/A,,Partly Cloudy,0,2012-11-16 05:51:00
1:51 AM,30.0,25.0,82,30.30,10.0,Calm,Calm,-,N/A,,Mostly Cloudy,0,2012-11-16 06:51:00
2:51 AM,30.9,25.0,79,30.31,10.0,NNW,3.5,-,N/A,,Mostly Cloudy,340,2012-11-16 07:51:00
3:51 AM,30.9,25.0,79,30.31,10.0,North,3.5,-,N/A,,Mostly Cloudy,350,2012-11-16 08:51:00
4:51 AM,30.9,24.1,76,30.30,10.0,Calm,Calm,-,N/A,,Mostly Cloudy,0,2012-11-16 09:51:00
5:51 AM,30.9,25.0,79,30.30,10.0,NNW,4.6,-,N/A,,Mostly Cloudy,340,2012-11-16 10:51:00
6:51 AM,30.9,25.0,79,30.32,10.0,North,3.5,-,N/A,,Mostly Cloudy,350,2012-11-16 11:51:00
7:51 AM,32.0,25.0,75,30.33,10.0,North,3.5,-,N/A,,Mostly Cloudy,360,2012-11-16 12:51:00
8:51 AM,36.0,27.0,70,30.34,10.0,NNE,6.9,-,N/A,,Scattered Clouds,20,2012-11-16 13:51:00
9:51 AM,41.0,26.1,55,30.34,10.0,NNE,13.8,-,N/A,,Mostly Cloudy,20,2012-11-16 14:51:00
10:51 AM,42.1,24.1,49,30.33,10.0,NNE,10.4,-,N/A,,Mostly Cloudy,30,2012-11-16 15:51:00
11:51 AM,44.1,21.9,42,30.32,10.0,NNE,9.2,-,N/A,,Mostly Cloudy,30,2012-11-16 16:51:00
12:51 PM,45.0,19.9,37,30.31,10.0,North,9.2,-,N/A,,Mostly Cloudy,350,2012-11-16 17:51:00
1:51 PM,45.0,19.9,37,30.30,10.0,NNE,5.8,-,N/A,,Overcast,30,2012-11-16 18:51:00
2:51 PM,46.0,21.0,37,30.31,10.0,NE,4.6,-,N/A,,Mostly Cloudy,50,2012-11-16 19:51:00
3:51 PM,46.0,21.9,39,30.32,10.0,NNE,6.9,-,N/A,,Mostly Cloudy,20,2012-11-16 20:51:00
4:51 PM,41.0,21.9,47,30.34,10.0,North,4.6,-,N/A,,Mostly Cloudy,360,2012-11-16 21:51:00
5:51 PM,37.9,23.0,55,30.36,10.0,NNW,5.8,-,N/A,,Mostly Cloudy,330,2012-11-16 22:51:00
6:51 PM,39.0,21.9,50,30.37,10.0,NNW,6.9,-,N/A,,Mostly Cloudy,340,2012-11-16 23:51:00
7:51 PM,36.0,24.1,62,30.38,10.0,NNW,6.9,-,N/A,,Partly Cloudy,340,2012-11-17 00:51:00
8:51 PM,35.1,23.0,61,30.40,10.0,NNW,4.6,-,N/A,,Partly Cloudy,340,2012-11-17 01:51:00
9:51 PM,34.0,23.0,64,30.41,10.0,North,4.6,-,N/A,,Clear,360,2012-11-17 02:51:00
10:51 PM,33.1,23.0,66,30.43,10.0,North,3.5,-,N/A,,Clear,360,2012-11-17 03:51:00
11:51 PM,28.0,23.0,81,30.45,10.0,NW,4.6,-,N/A,,Clear,310,2012-11-17 04:51:00